createdAt,value
2018-09-06T00:02:36.881Z,65.37
2018-09-06T00:05:05.905Z,59.63
2018-09-06T00:07:34.954Z,87.90
2018-09-06T00:10:04.207Z,59.67
2018-09-06T01:03:00.158Z,67.00
2018-09-06T01:05:29.878Z,58.87
2018-09-06T02:02:48.905Z,45.67
2018-09-06T02:05:50.235Z,52.40
2018-09-06T02:08:19.400Z,60.23
2018-09-06T03:02:37.217Z,84.43
2018-09-06T03:05:06.281Z,60.57
2018-09-06T03:07:35.298Z,53.87
2018-09-06T03:10:05.422Z,46.67
2018-09-06T04:03:33.236Z,71.90
2018-09-06T04:06:02.303Z,58.20
2018-09-06T04:08:31.300Z,73.73
2018-09-06T04:11:00.560Z,52.50
2018-09-06T05:02:37.309Z,76.23
2018-09-06T05:05:06.606Z,59.53
2018-09-06T05:07:35.643Z,55.17
2018-09-06T05:10:04.860Z,58.03
2018-09-06T06:03:19.578Z,35.63
2018-09-06T06:05:48.642Z,35.97
2018-09-06T06:08:28.726Z,31.47
2018-09-06T07:02:37.172Z,26.50
2018-09-06T07:05:06.254Z,23.93
2018-09-06T07:07:35.324Z,25.20
2018-09-06T08:03:13.154Z,17.83
2018-09-06T08:05:42.647Z,14.20
2018-09-06T08:08:11.917Z,16.60
2018-09-06T08:10:41.664Z,14.80
2018-09-06T09:03:08.742Z,19.43
2018-09-06T09:05:37.895Z,14.83
2018-09-06T09:08:06.984Z,15.10
2018-09-06T09:10:36.177Z,14.33
2018-09-06T10:02:41.948Z,18.60
2018-09-06T10:05:16.035Z,13.67
2018-09-06T10:07:50.227Z,10.63
2018-09-06T11:02:37.738Z,11.13
2018-09-06T11:05:06.749Z,11.70
2018-09-06T11:07:35.745Z,10.73
2018-09-06T11:10:04.949Z,11.13
2018-09-06T12:02:50.813Z,11.27
2018-09-06T12:05:19.817Z,10.07
2018-09-06T12:07:48.939Z,11.83
2018-09-06T12:10:19.356Z,11.40
2018-09-06T13:02:37.055Z,12.50
2018-09-06T13:05:06.270Z,10.07
2018-09-06T13:07:35.536Z,12.37
2018-09-06T13:10:04.944Z,12.00
2018-09-06T14:02:37.100Z,19.50
2018-09-06T14:05:06.567Z,11.73
2018-09-06T14:07:35.740Z,10.63
2018-09-06T14:10:05.771Z,11.60
2018-09-06T15:02:57.827Z,11.47
2018-09-06T15:05:26.910Z,11.03
2018-09-06T15:07:55.954Z,12.77
2018-09-06T15:10:25.161Z,12.93
2018-09-06T16:02:40.587Z,12.03
2018-09-06T16:05:09.910Z,11.40
2018-09-06T16:07:39.010Z,12.13
2018-09-06T16:10:08.708Z,11.88
2018-09-06T17:02:37.921Z,14.67
2018-09-06T17:05:06.968Z,14.07
2018-09-06T17:07:36.079Z,14.83
2018-09-06T17:10:05.338Z,15.80
2018-09-06T18:02:52.113Z,20.13
2018-09-06T18:05:21.138Z,21.87
2018-09-06T18:07:50.154Z,21.60
2018-09-06T18:10:19.457Z,23.62
2018-09-06T19:02:40.841Z,29.03
2018-09-06T19:05:09.854Z,25.37
2018-09-06T19:07:38.856Z,22.83
2018-09-06T20:02:40.948Z,23.10
2018-09-06T20:05:10.131Z,20.40
2018-09-06T20:07:39.132Z,20.80
2018-09-06T20:10:08.474Z,18.80
2018-09-06T21:02:45.217Z,41.83
2018-09-06T21:05:14.215Z,36.53
2018-09-06T21:07:43.252Z,36.03
2018-09-06T21:10:12.489Z,37.23
2018-09-06T23:02:45.710Z,31.53
2018-09-06T23:05:14.813Z,30.20
2018-09-06T23:07:43.868Z,32.90
